createdAt,value
2017-10-11T00:00:53.734Z,100
2017-10-11T00:01:56.116Z,100
2017-10-11T00:02:58.496Z,100
2017-10-11T00:04:01.240Z,100
2017-10-11T00:05:03.633Z,100
2017-10-11T00:06:06.001Z,100
2017-10-11T00:07:08.375Z,100
2017-10-11T00:08:10.759Z,100
2017-10-11T00:09:13.129Z,100
2017-10-11T00:10:15.515Z,100
2017-10-11T00:11:17.885Z,100
2017-10-11T00:12:20.270Z,100
2017-10-11T00:13:22.653Z,100
2017-10-11T00:14:25.028Z,100
2017-10-11T00:15:27.414Z,100
2017-10-11T00:16:30.168Z,100
2017-10-11T00:17:32.538Z,100
2017-10-11T00:18:34.931Z,100
2017-10-11T00:19:37.294Z,100
2017-10-11T00:20:39.879Z,100
2017-10-11T00:21:42.617Z,100
2017-10-11T00:22:45.199Z,100
2017-10-11T00:23:47.577Z,100
2017-10-11T00:24:49.961Z,100
2017-10-11T00:25:52.347Z,100
2017-10-11T00:26:54.728Z,100
2017-10-11T00:27:57.110Z,100
2017-10-11T00:28:59.489Z,100
2017-10-11T00:30:01.872Z,100
2017-10-11T00:31:04.252Z,100
2017-10-11T00:32:06.643Z,100
2017-10-11T00:33:09.012Z,100
2017-10-11T00:34:11.390Z,100
2017-10-11T00:35:13.763Z,100
2017-10-11T00:36:16.133Z,100
2017-10-11T00:37:18.509Z,99
2017-10-11T00:38:20.888Z,99
2017-10-11T00:39:23.266Z,99
2017-10-11T00:40:25.649Z,99
2017-10-11T00:41:28.030Z,99
2017-10-11T00:42:30.413Z,99
2017-10-11T00:43:32.794Z,99
2017-10-11T00:44:35.181Z,99
2017-10-11T00:45:37.554Z,99
2017-10-11T00:46:39.930Z,99
2017-10-11T00:47:42.315Z,99
2017-10-11T00:48:45.035Z,99
2017-10-11T00:49:47.415Z,99
2017-10-11T00:50:49.789Z,99
2017-10-11T00:51:52.152Z,99
2017-10-11T00:52:54.542Z,99
2017-10-11T00:53:56.921Z,99
2017-10-11T00:54:59.295Z,99
2017-10-11T00:56:01.676Z,99
2017-10-11T00:57:04.072Z,99
2017-10-11T00:58:06.432Z,99
2017-10-11T00:59:08.818Z,99
2017-10-11T01:00:11.204Z,99
2017-10-11T01:01:13.583Z,99
2017-10-11T01:02:15.966Z,99
2017-10-11T01:03:18.345Z,99
2017-10-11T01:04:20.709Z,99
2017-10-11T01:05:23.448Z,99
2017-10-11T01:06:25.820Z,98
2017-10-11T01:07:28.191Z,98
2017-10-11T01:08:30.575Z,98
2017-10-11T01:09:32.958Z,98
2017-10-11T01:10:35.341Z,98
2017-10-11T01:11:37.720Z,98
2017-10-11T01:12:40.096Z,98
2017-10-11T01:13:42.483Z,98
2017-10-11T01:14:44.861Z,98
2017-10-11T01:15:47.240Z,98
2017-10-11T01:16:49.605Z,98
2017-10-11T01:17:51.987Z,98
2017-10-11T01:18:54.366Z,98
2017-10-11T01:19:56.744Z,98
2017-10-11T01:20:59.123Z,98
2017-10-11T01:22:01.507Z,98
2017-10-11T01:23:04.243Z,98
2017-10-11T01:24:06.629Z,98
2017-10-11T01:25:09.002Z,97
2017-10-11T01:26:11.371Z,97
2017-10-11T01:27:13.757Z,97
2017-10-11T01:28:16.825Z,98
2017-10-11T01:29:19.211Z,98
2017-10-11T01:30:21.585Z,98
2017-10-11T01:31:23.969Z,98
2017-10-11T01:32:26.341Z,98
2017-10-11T01:33:28.730Z,98
2017-10-11T01:34:31.452Z,97
2017-10-11T01:35:33.833Z,97
2017-10-11T01:36:36.213Z,97
2017-10-11T01:37:38.598Z,97
2017-10-11T01:38:40.974Z,98
2017-10-11T01:39:43.352Z,98
2017-10-11T01:40:45.729Z,98
2017-10-11T01:41:48.117Z,97
2017-10-11T01:42:50.508Z,97
2017-10-11T01:43:52.881Z,97
2017-10-11T01:44:55.260Z,97
2017-10-11T01:45:57.645Z,97
2017-10-11T01:47:00.010Z,97
2017-10-11T01:48:02.405Z,97
2017-10-11T01:49:04.772Z,97
2017-10-11T01:50:07.148Z,97
2017-10-11T01:51:09.525Z,97
2017-10-11T01:52:11.901Z,97
2017-10-11T01:53:14.284Z,97
2017-10-11T01:54:16.665Z,97
2017-10-11T01:55:19.041Z,97
2017-10-11T01:56:21.421Z,97
2017-10-11T01:57:23.792Z,97
2017-10-11T01:58:26.171Z,97
2017-10-11T01:59:28.906Z,98
2017-10-11T02:00:31.287Z,98
2017-10-11T02:01:34.022Z,97
2017-10-11T02:02:36.403Z,97
2017-10-11T02:03:38.787Z,97
2017-10-11T02:04:41.521Z,97
2017-10-11T02:05:43.903Z,97
2017-10-11T02:06:46.273Z,97
2017-10-11T02:07:48.645Z,97
2017-10-11T02:08:51.036Z,97
2017-10-11T02:09:53.410Z,97
2017-10-11T02:10:55.792Z,97
2017-10-11T02:11:58.522Z,97
2017-10-11T02:13:00.905Z,97
2017-10-11T02:14:03.293Z,97
2017-10-11T02:15:05.667Z,97
2017-10-11T02:16:08.040Z,97
2017-10-11T02:17:10.421Z,97
2017-10-11T02:18:12.802Z,97
2017-10-11T02:19:15.184Z,97
2017-10-11T02:20:17.563Z,97
2017-10-11T02:21:19.929Z,97
2017-10-11T02:22:22.314Z,97
2017-10-11T02:23:24.702Z,97
2017-10-11T02:24:27.084Z,97
2017-10-11T02:25:29.454Z,97
2017-10-11T02:26:31.834Z,97
2017-10-11T02:27:34.213Z,97
2017-10-11T02:28:36.607Z,97
2017-10-11T02:29:38.972Z,97
2017-10-11T02:30:41.352Z,97
2017-10-11T02:31:43.733Z,97
2017-10-11T02:32:46.121Z,97
2017-10-11T02:33:48.496Z,97
2017-10-11T02:34:50.867Z,97
2017-10-11T02:35:53.247Z,97
2017-10-11T02:36:55.629Z,97
2017-10-11T02:37:58.019Z,97
2017-10-11T02:39:00.395Z,97
2017-10-11T02:40:03.111Z,97
2017-10-11T02:41:05.492Z,97
2017-10-11T02:42:07.877Z,97
2017-10-11T02:43:10.601Z,97
2017-10-11T02:44:12.979Z,97
2017-10-11T02:45:15.363Z,97
2017-10-11T02:46:17.739Z,97
2017-10-11T02:47:32.906Z,97
2017-10-11T02:48:35.324Z,97
2017-10-11T02:49:37.814Z,97
2017-10-11T02:50:40.241Z,96
2017-10-11T02:51:42.675Z,96
2017-10-11T02:52:45.107Z,96
2017-10-11T02:53:47.548Z,96
2017-10-11T02:54:49.975Z,96
2017-10-11T02:55:52.401Z,96
2017-10-11T02:56:54.846Z,96
2017-10-11T02:57:57.268Z,95
2017-10-11T02:58:59.704Z,95
2017-10-11T03:00:02.126Z,96
2017-10-11T03:01:04.577Z,96
2017-10-11T03:02:06.997Z,96
2017-10-11T03:03:09.434Z,96
2017-10-11T03:04:11.858Z,96
2017-10-11T03:05:14.304Z,95
2017-10-11T03:06:16.736Z,96
2017-10-11T03:07:19.173Z,96
2017-10-11T03:08:21.600Z,95
2017-10-11T03:09:24.395Z,95
2017-10-11T03:10:26.830Z,95
2017-10-11T03:11:29.637Z,95
2017-10-11T03:12:32.419Z,95
2017-10-11T03:13:34.852Z,95
2017-10-11T03:14:37.634Z,95
2017-10-11T03:15:40.069Z,95
2017-10-11T03:16:42.493Z,95
2017-10-11T03:17:44.939Z,95
2017-10-11T03:18:47.346Z,95
2017-10-11T03:19:49.784Z,95
2017-10-11T03:20:52.221Z,95
2017-10-11T03:21:54.660Z,95
2017-10-11T03:22:57.094Z,95
2017-10-11T03:23:59.879Z,95
2017-10-11T03:25:02.313Z,96
2017-10-11T03:26:05.098Z,96
2017-10-11T03:27:07.526Z,96
2017-10-11T03:28:09.958Z,96
2017-10-11T03:29:12.396Z,96
2017-10-11T03:30:14.838Z,95
2017-10-11T03:31:17.271Z,95
2017-10-11T03:32:19.702Z,95
2017-10-11T03:33:22.141Z,96
2017-10-11T03:34:24.972Z,96
2017-10-11T03:35:27.406Z,95
2017-10-11T03:36:29.832Z,95
2017-10-11T03:37:32.611Z,96
2017-10-11T03:38:35.059Z,95
2017-10-11T03:39:37.493Z,96
2017-10-11T03:40:39.924Z,96
2017-10-11T03:41:42.352Z,96
2017-10-11T03:42:44.778Z,96
2017-10-11T03:43:47.567Z,96
2017-10-11T03:44:50.019Z,96
2017-10-11T03:45:52.794Z,96
2017-10-11T03:46:55.257Z,96
2017-10-11T03:47:57.669Z,96
2017-10-11T03:49:00.097Z,96
2017-10-11T03:50:02.537Z,96
2017-10-11T03:51:05.340Z,96
2017-10-11T03:52:07.763Z,96
2017-10-11T03:53:10.209Z,96
2017-10-11T03:54:12.657Z,96
2017-10-11T03:55:15.080Z,96
2017-10-11T03:56:17.511Z,96
2017-10-11T03:57:19.949Z,96
2017-10-11T03:58:22.747Z,96
2017-10-11T03:59:25.179Z,96
2017-10-11T04:00:27.619Z,96
2017-10-11T04:01:30.042Z,96
2017-10-11T04:02:32.483Z,96
2017-10-11T04:03:34.916Z,96
2017-10-11T04:04:37.351Z,96
2017-10-11T04:05:40.129Z,96
2017-10-11T04:06:42.563Z,96
2017-10-11T04:07:45.001Z,96
2017-10-11T04:08:47.440Z,96
2017-10-11T04:09:49.868Z,96
2017-10-11T04:10:52.301Z,96
2017-10-11T04:11:54.750Z,96
2017-10-11T04:12:57.207Z,96
2017-10-11T04:13:59.637Z,96
2017-10-11T04:15:02.073Z,96
2017-10-11T04:16:04.506Z,96
2017-10-11T04:17:06.943Z,96
2017-10-11T04:18:09.371Z,96
2017-10-11T04:19:11.813Z,96
2017-10-11T04:20:14.237Z,96
2017-10-11T04:21:16.671Z,96
2017-10-11T04:22:19.465Z,96
2017-10-11T04:23:21.900Z,96
2017-10-11T04:24:24.335Z,96
2017-10-11T04:25:27.500Z,96
2017-10-11T04:26:29.929Z,96
2017-10-11T04:27:32.368Z,96
2017-10-11T04:28:34.804Z,96
2017-10-11T04:29:37.246Z,96
2017-10-11T04:30:39.669Z,96
2017-10-11T04:31:42.460Z,96
2017-10-11T04:32:44.898Z,96
2017-10-11T04:33:47.322Z,96
2017-10-11T04:34:49.764Z,96
2017-10-11T04:35:52.199Z,96
2017-10-11T04:36:54.616Z,96
2017-10-11T04:37:57.065Z,96
2017-10-11T04:38:59.850Z,96
2017-10-11T04:40:02.281Z,96
2017-10-11T04:41:04.712Z,96
2017-10-11T04:42:07.148Z,96
2017-10-11T04:43:09.941Z,96
2017-10-11T04:44:12.380Z,96
2017-10-11T04:45:14.825Z,96
2017-10-11T04:46:17.621Z,96
2017-10-11T04:47:20.061Z,96
2017-10-11T04:48:22.494Z,96
2017-10-11T04:49:24.924Z,96
2017-10-11T04:50:27.356Z,96
2017-10-11T04:51:29.789Z,96
2017-10-11T04:52:32.218Z,96
2017-10-11T04:53:34.687Z,96
2017-10-11T04:54:37.124Z,96
2017-10-11T04:55:39.554Z,96
2017-10-11T04:56:41.989Z,96
2017-10-11T04:57:44.435Z,96
2017-10-11T04:58:46.864Z,97
2017-10-11T04:59:49.299Z,97
2017-10-11T05:00:51.721Z,97
2017-10-11T05:01:54.153Z,97
2017-10-11T05:02:56.599Z,97
2017-10-11T05:03:59.030Z,97
2017-10-11T05:05:01.802Z,97
2017-10-11T05:06:04.235Z,98
2017-10-11T05:07:06.664Z,98
2017-10-11T05:08:09.116Z,98
2017-10-11T05:09:11.547Z,98
2017-10-11T05:10:13.974Z,98
2017-10-11T05:11:16.409Z,98
2017-10-11T05:12:18.841Z,98
2017-10-11T05:13:21.282Z,98
2017-10-11T05:14:23.717Z,98
2017-10-11T05:15:26.137Z,98
2017-10-11T05:16:28.576Z,99
2017-10-11T05:17:31.014Z,99
2017-10-11T05:18:33.439Z,99
2017-10-11T05:19:35.866Z,99
2017-10-11T05:20:38.657Z,99
2017-10-11T05:21:41.092Z,99
2017-10-11T05:22:43.526Z,99
2017-10-11T05:23:45.971Z,99
2017-10-11T05:24:48.389Z,99
2017-10-11T05:25:50.825Z,99
2017-10-11T05:26:53.265Z,99
2017-10-11T05:27:55.701Z,99
2017-10-11T05:28:58.133Z,99
2017-10-11T05:30:00.934Z,99
2017-10-11T05:31:03.716Z,99
2017-10-11T05:32:06.161Z,99
2017-10-11T05:33:08.590Z,99
2017-10-11T05:34:11.376Z,99
2017-10-11T05:35:13.815Z,99
2017-10-11T05:36:16.252Z,99
2017-10-11T05:37:18.681Z,99
2017-10-11T05:38:21.113Z,99
2017-10-11T05:39:23.549Z,99
2017-10-11T05:40:25.994Z,99
2017-10-11T05:41:29.152Z,99
2017-10-11T05:42:31.937Z,99
2017-10-11T05:43:34.361Z,100
2017-10-11T05:44:37.164Z,100
2017-10-11T05:45:39.597Z,100
2017-10-11T05:46:42.379Z,100
2017-10-11T05:47:44.801Z,100
2017-10-11T05:48:47.600Z,100
2017-10-11T05:49:50.032Z,100
2017-10-11T05:50:52.833Z,100
2017-10-11T05:51:55.258Z,100
2017-10-11T05:52:57.682Z,100
2017-10-11T05:54:00.117Z,100
2017-10-11T05:55:02.910Z,100
2017-10-11T05:56:05.336Z,100
2017-10-11T05:57:07.771Z,100
2017-10-11T05:58:10.220Z,100
2017-10-11T05:59:12.645Z,100
2017-10-11T06:00:15.441Z,100
2017-10-11T06:01:17.884Z,100
2017-10-11T06:02:20.689Z,100
2017-10-11T06:03:23.123Z,100
2017-10-11T06:04:25.560Z,100
2017-10-11T06:05:27.983Z,100
2017-10-11T06:06:30.429Z,100
2017-10-11T06:07:33.211Z,100
2017-10-11T06:08:35.654Z,100
2017-10-11T06:09:38.088Z,100
2017-10-11T06:10:40.537Z,100
2017-10-11T06:11:42.954Z,100
2017-10-11T06:12:45.388Z,100
2017-10-11T06:13:47.819Z,100
2017-10-11T06:14:50.264Z,100
2017-10-11T06:15:52.687Z,100
2017-10-11T06:16:55.477Z,100
2017-10-11T06:17:57.911Z,100
2017-10-11T06:19:00.351Z,100
2017-10-11T06:20:02.785Z,100
2017-10-11T06:21:05.209Z,100
2017-10-11T06:22:07.655Z,100
2017-10-11T06:23:10.089Z,100
2017-10-11T06:24:12.506Z,100
2017-10-11T06:25:14.940Z,100
2017-10-11T06:26:17.385Z,100
2017-10-11T06:27:20.174Z,100
2017-10-11T06:28:23.317Z,100
2017-10-11T06:29:25.752Z,100
2017-10-11T06:30:28.182Z,100
2017-10-11T06:31:30.627Z,100
2017-10-11T06:32:33.420Z,100
2017-10-11T06:33:35.855Z,100
2017-10-11T06:34:38.284Z,100
2017-10-11T06:35:40.726Z,100
2017-10-11T06:36:43.153Z,100
2017-10-11T06:37:45.593Z,100
2017-10-11T06:38:48.019Z,100
2017-10-11T06:39:50.454Z,100
2017-10-11T06:40:52.884Z,100
2017-10-11T06:41:55.316Z,100
2017-10-11T06:42:57.742Z,100
2017-10-11T06:44:00.187Z,100
2017-10-11T06:45:02.614Z,100
2017-10-11T06:46:05.045Z,100
2017-10-11T06:47:07.488Z,100
2017-10-11T06:48:09.917Z,100
2017-10-11T06:49:12.348Z,100
2017-10-11T06:50:14.784Z,99
2017-10-11T06:51:17.212Z,99
2017-10-11T06:52:19.644Z,99
2017-10-11T06:53:22.073Z,99
2017-10-11T06:54:24.499Z,99
2017-10-11T06:55:26.924Z,99
2017-10-11T06:56:29.361Z,99
2017-10-11T06:57:32.158Z,99
2017-10-11T06:58:34.588Z,99
2017-10-11T06:59:37.029Z,99
2017-10-11T07:00:39.465Z,99
2017-10-11T07:01:41.900Z,98
2017-10-11T07:02:44.348Z,98
2017-10-11T07:03:47.128Z,98
2017-10-11T07:04:49.566Z,98
2017-10-11T07:05:51.998Z,98
2017-10-11T07:06:54.446Z,98
2017-10-11T07:07:56.852Z,98
2017-10-11T07:08:59.288Z,98
2017-10-11T07:10:01.723Z,98
2017-10-11T07:11:04.513Z,98
2017-10-11T07:12:06.951Z,98
2017-10-11T07:13:09.386Z,98
2017-10-11T07:14:11.831Z,98
2017-10-11T07:15:14.270Z,98
2017-10-11T07:16:16.691Z,98
2017-10-11T07:17:19.123Z,97
2017-10-11T07:18:21.566Z,97
2017-10-11T07:19:23.999Z,97
2017-10-11T07:20:26.434Z,97
2017-10-11T07:21:28.856Z,97
2017-10-11T07:22:31.291Z,97
2017-10-11T07:23:33.724Z,97
2017-10-11T07:24:36.163Z,97
2017-10-11T07:25:38.593Z,97
2017-10-11T07:26:41.038Z,97
2017-10-11T07:27:43.829Z,97
2017-10-11T07:28:46.640Z,97
2017-10-11T07:29:49.431Z,97
2017-10-11T07:30:52.227Z,97
2017-10-11T07:31:54.651Z,97
2017-10-11T07:32:57.092Z,97
2017-10-11T07:33:59.525Z,97
2017-10-11T07:35:01.961Z,97
2017-10-11T07:36:04.387Z,97
2017-10-11T07:37:06.817Z,97
2017-10-11T07:38:09.258Z,97
2017-10-11T07:39:11.691Z,97
2017-10-11T07:40:14.113Z,97
2017-10-11T07:41:16.556Z,96
2017-10-11T07:42:18.995Z,96
2017-10-11T07:43:21.435Z,96
2017-10-11T07:44:23.879Z,96
2017-10-11T07:45:26.308Z,96
2017-10-11T07:46:28.734Z,96
2017-10-11T07:47:31.541Z,96
2017-10-11T07:48:33.964Z,96
2017-10-11T07:49:36.389Z,96
2017-10-11T07:50:39.188Z,96
2017-10-11T07:51:41.626Z,96
2017-10-11T07:52:44.416Z,95
2017-10-11T07:53:46.849Z,95
2017-10-11T07:54:49.653Z,95
2017-10-11T07:55:52.093Z,95
2017-10-11T07:56:54.518Z,95
2017-10-11T07:57:56.955Z,95
2017-10-11T07:58:59.388Z,95
2017-10-11T08:00:01.809Z,95
2017-10-11T08:01:04.246Z,94
2017-10-11T08:02:07.020Z,94
2017-10-11T08:03:09.810Z,94
2017-10-11T08:04:12.261Z,94
2017-10-11T08:05:15.037Z,94
2017-10-11T08:06:17.470Z,94
2017-10-11T08:07:19.911Z,94
2017-10-11T08:08:22.340Z,94
2017-10-11T08:09:24.775Z,94
2017-10-11T08:10:27.219Z,94
2017-10-11T08:11:29.644Z,94
2017-10-11T08:12:32.084Z,94
2017-10-11T08:13:34.516Z,94
2017-10-11T08:14:36.952Z,93
2017-10-11T08:15:39.383Z,93
2017-10-11T08:16:41.816Z,93
2017-10-11T08:17:44.244Z,93
2017-10-11T08:18:46.686Z,93
2017-10-11T08:19:49.126Z,93
2017-10-11T08:20:51.561Z,93
2017-10-11T08:21:53.996Z,93
2017-10-11T08:22:56.431Z,93
2017-10-11T08:23:59.223Z,93
2017-10-11T08:25:01.659Z,93
2017-10-11T08:26:04.091Z,93
2017-10-11T08:27:06.517Z,93
2017-10-11T08:28:08.969Z,93
2017-10-11T08:29:11.395Z,93
2017-10-11T08:30:13.825Z,92
2017-10-11T08:31:16.256Z,92
2017-10-11T08:32:18.690Z,91
2017-10-11T08:33:21.134Z,92
2017-10-11T08:34:23.924Z,92
2017-10-11T08:35:26.368Z,92
2017-10-11T08:36:28.807Z,91
2017-10-11T08:37:31.256Z,91
2017-10-11T08:38:33.689Z,92
2017-10-11T08:39:36.112Z,92
2017-10-11T08:40:38.548Z,91
2017-10-11T08:41:40.981Z,91
2017-10-11T08:42:43.416Z,91
2017-10-11T08:43:45.844Z,91
2017-10-11T08:44:48.277Z,91
2017-10-11T08:45:50.709Z,91
2017-10-11T08:46:53.157Z,91
2017-10-11T08:47:55.593Z,91
2017-10-11T08:48:58.026Z,91
2017-10-11T08:50:00.466Z,91
2017-10-11T08:51:02.909Z,91
2017-10-11T08:52:05.333Z,91
2017-10-11T08:53:07.783Z,91
2017-10-11T08:54:10.220Z,91
2017-10-11T08:55:13.015Z,91
2017-10-11T08:56:15.799Z,91
2017-10-11T08:57:18.235Z,91
2017-10-11T08:58:20.670Z,91
2017-10-11T08:59:23.110Z,91
2017-10-11T09:00:25.542Z,91
2017-10-11T09:01:28.682Z,91
2017-10-11T09:02:31.114Z,92
2017-10-11T09:03:33.552Z,91
2017-10-11T09:04:35.982Z,91
2017-10-11T09:05:38.784Z,91
2017-10-11T09:06:41.218Z,92
2017-10-11T09:07:43.653Z,92
2017-10-11T09:08:46.081Z,92
2017-10-11T09:09:48.970Z,92
2017-10-11T09:10:51.394Z,93
2017-10-11T09:11:53.841Z,93
2017-10-11T09:12:56.618Z,93
2017-10-11T09:13:59.416Z,93
2017-10-11T09:15:01.853Z,94
2017-10-11T09:16:04.291Z,94
2017-10-11T09:17:06.731Z,94
2017-10-11T09:18:09.168Z,95
2017-10-11T09:19:11.599Z,95
2017-10-11T09:20:14.023Z,95
2017-10-11T09:21:16.811Z,95
2017-10-11T09:22:19.250Z,96
2017-10-11T09:23:21.683Z,96
2017-10-11T09:24:24.110Z,96
2017-10-11T09:25:26.549Z,97
2017-10-11T09:26:28.984Z,97
2017-10-11T09:27:31.430Z,97
2017-10-11T09:28:33.872Z,97
2017-10-11T09:29:36.291Z,97
2017-10-11T09:30:38.726Z,97
2017-10-11T09:31:41.165Z,98
2017-10-11T09:32:43.949Z,98
2017-10-11T09:33:46.383Z,98
2017-10-11T09:34:48.805Z,98
2017-10-11T09:35:51.246Z,98
2017-10-11T09:36:53.693Z,98
2017-10-11T09:37:56.128Z,98
2017-10-11T09:38:58.566Z,99
2017-10-11T09:40:00.994Z,99
2017-10-11T09:41:03.429Z,99
2017-10-11T09:42:05.876Z,99
2017-10-11T09:43:08.309Z,99
2017-10-11T09:44:10.745Z,99
2017-10-11T09:45:13.178Z,99
2017-10-11T09:46:15.971Z,99
2017-10-11T09:47:18.408Z,99
2017-10-11T09:48:20.845Z,99
2017-10-11T09:49:23.281Z,99
2017-10-11T09:50:25.714Z,99
2017-10-11T09:51:28.150Z,99
2017-10-11T09:52:30.590Z,100
2017-10-11T09:53:33.031Z,100
2017-10-11T09:54:35.846Z,100
2017-10-11T09:55:38.266Z,100
2017-10-11T09:56:40.707Z,100
2017-10-11T09:57:43.146Z,100
2017-10-11T09:58:45.575Z,100
2017-10-11T09:59:48.013Z,100
2017-10-11T10:00:50.442Z,100
2017-10-11T10:01:53.236Z,100
2017-10-11T10:02:55.682Z,100
2017-10-11T10:03:58.128Z,100
2017-10-11T10:05:00.562Z,100
2017-10-11T10:06:02.992Z,100
2017-10-11T10:07:05.433Z,100
2017-10-11T10:08:07.874Z,100
2017-10-11T10:09:10.306Z,100
2017-10-11T10:10:13.090Z,100
2017-10-11T10:11:15.532Z,100
2017-10-11T10:12:17.968Z,100
2017-10-11T10:13:20.408Z,100
2017-10-11T10:14:22.847Z,99
2017-10-11T10:15:25.279Z,100
2017-10-11T10:16:27.707Z,99
2017-10-11T10:17:30.151Z,99
2017-10-11T10:18:32.939Z,99
2017-10-11T10:19:35.364Z,99
2017-10-11T10:20:37.802Z,99
2017-10-11T10:21:40.271Z,99
2017-10-11T10:22:42.671Z,99
2017-10-11T10:23:45.465Z,99
2017-10-11T10:24:47.901Z,99
2017-10-11T10:25:50.327Z,99
2017-10-11T10:26:52.776Z,99
2017-10-11T10:27:55.201Z,99
2017-10-11T10:28:57.634Z,99
2017-10-11T10:30:00.067Z,99
2017-10-11T10:31:02.855Z,99
2017-10-11T10:32:05.295Z,99
2017-10-11T10:33:07.745Z,99
2017-10-11T10:34:10.167Z,99
2017-10-11T10:35:12.603Z,99
2017-10-11T10:36:15.040Z,99
2017-10-11T10:37:17.472Z,99
2017-10-11T10:38:19.908Z,99
2017-10-11T10:39:22.349Z,99
2017-10-11T10:40:24.774Z,99
2017-10-11T10:41:27.209Z,99
2017-10-11T10:42:29.646Z,99
2017-10-11T10:43:32.085Z,99
2017-10-11T10:44:34.513Z,99
2017-10-11T10:45:36.957Z,99
2017-10-11T10:46:39.387Z,98
2017-10-11T10:47:41.819Z,99
2017-10-11T10:48:44.261Z,99
2017-10-11T10:49:46.697Z,99
2017-10-11T10:50:49.127Z,99
2017-10-11T10:51:51.924Z,99
2017-10-11T10:52:54.371Z,99
2017-10-11T10:53:56.799Z,99
2017-10-11T10:54:59.226Z,99
2017-10-11T10:56:01.660Z,99
2017-10-11T10:57:04.085Z,99
2017-10-11T10:58:06.530Z,99
2017-10-11T10:59:08.967Z,99
2017-10-11T11:00:11.390Z,99
2017-10-11T11:01:14.541Z,99
2017-10-11T11:02:16.987Z,99
2017-10-11T11:03:19.417Z,99
2017-10-11T11:04:21.851Z,99
2017-10-11T11:05:24.646Z,99
2017-10-11T11:06:27.086Z,98
2017-10-11T11:07:29.534Z,99
2017-10-11T11:08:32.684Z,99
2017-10-11T11:09:35.115Z,99
2017-10-11T11:10:37.900Z,99
2017-10-11T11:11:40.690Z,99
2017-10-11T11:12:43.132Z,98
2017-10-11T11:13:45.928Z,99
2017-10-11T11:14:48.356Z,99
2017-10-11T11:15:50.785Z,99
2017-10-11T11:16:53.233Z,99
2017-10-11T11:17:56.033Z,99
2017-10-11T11:18:58.482Z,99
2017-10-11T11:20:00.919Z,99
2017-10-11T11:21:03.357Z,99
2017-10-11T11:22:06.149Z,99
2017-10-11T11:23:08.584Z,99
2017-10-11T11:24:11.007Z,99
2017-10-11T11:25:13.454Z,99
2017-10-11T11:26:15.878Z,99
2017-10-11T11:27:18.317Z,99
2017-10-11T11:28:20.756Z,99
2017-10-11T11:29:23.193Z,99
2017-10-11T11:30:25.632Z,99
2017-10-11T11:31:28.065Z,100
2017-10-11T11:32:30.488Z,100
2017-10-11T11:33:33.294Z,100
2017-10-11T11:34:35.732Z,100
2017-10-11T11:35:38.162Z,100
2017-10-11T11:36:40.959Z,100
2017-10-11T11:37:43.399Z,100
2017-10-11T11:38:45.816Z,100
2017-10-11T11:39:48.267Z,100
2017-10-11T11:40:50.694Z,100
2017-10-11T11:41:53.128Z,100
2017-10-11T11:42:55.573Z,100
2017-10-11T11:43:58.368Z,100
2017-10-11T11:45:00.808Z,100
2017-10-11T11:46:03.256Z,100
2017-10-11T11:47:05.685Z,100
2017-10-11T11:48:08.111Z,100
2017-10-11T11:49:10.546Z,100
2017-10-11T11:50:13.003Z,100
2017-10-11T11:51:15.430Z,100
2017-10-11T11:52:17.867Z,100
2017-10-11T11:53:20.677Z,100
2017-10-11T11:54:23.105Z,100
2017-10-11T11:55:25.542Z,100
2017-10-11T11:56:27.989Z,100
2017-10-11T11:57:30.408Z,100
2017-10-11T11:58:32.849Z,100
2017-10-11T11:59:35.289Z,100
2017-10-11T12:00:37.724Z,100
2017-10-11T12:01:40.160Z,100
2017-10-11T12:02:42.600Z,100
2017-10-11T12:03:45.036Z,100
2017-10-11T12:04:47.839Z,100
2017-10-11T12:05:50.654Z,100
2017-10-11T12:06:53.079Z,100
2017-10-11T12:07:55.517Z,100
2017-10-11T12:08:57.953Z,100
2017-10-11T12:10:00.384Z,100
2017-10-11T12:11:02.822Z,100
2017-10-11T12:12:05.603Z,100
2017-10-11T12:13:08.044Z,100
2017-10-11T12:14:10.496Z,100
2017-10-11T12:15:12.926Z,100
2017-10-11T12:16:15.359Z,100
2017-10-11T12:17:17.790Z,100
2017-10-11T12:18:20.227Z,100
2017-10-11T12:19:22.666Z,100
2017-10-11T12:20:25.096Z,100
2017-10-11T12:21:27.540Z,100
2017-10-11T12:22:29.981Z,100
2017-10-11T12:23:32.401Z,100
2017-10-11T12:24:34.846Z,100
2017-10-11T12:25:37.280Z,100
2017-10-11T12:26:39.713Z,100
2017-10-11T12:27:42.155Z,100
2017-10-11T12:28:44.942Z,100
2017-10-11T12:29:47.371Z,100
2017-10-11T12:30:49.817Z,100
2017-10-11T12:31:52.246Z,100
2017-10-11T12:32:54.681Z,100
2017-10-11T12:33:57.828Z,100
2017-10-11T12:35:00.256Z,100
2017-10-11T12:36:02.691Z,100
2017-10-11T12:37:05.128Z,100
2017-10-11T12:38:07.935Z,100
2017-10-11T12:39:10.368Z,100
2017-10-11T12:40:12.803Z,100
2017-10-11T12:41:15.239Z,100
2017-10-11T12:42:17.682Z,100
2017-10-11T12:43:20.121Z,100
2017-10-11T12:44:22.564Z,100
2017-10-11T12:45:25.364Z,100
2017-10-11T12:46:27.797Z,100
2017-10-11T12:47:30.228Z,100
2017-10-11T12:48:32.673Z,100
2017-10-11T12:49:35.111Z,100
2017-10-11T12:50:37.551Z,100
2017-10-11T12:51:39.981Z,100
2017-10-11T12:52:42.414Z,100
2017-10-11T12:53:44.849Z,100
2017-10-11T12:54:47.277Z,100
2017-10-11T12:55:49.710Z,100
2017-10-11T12:56:52.146Z,100
2017-10-11T12:57:54.926Z,100
2017-10-11T12:58:57.366Z,100
2017-10-11T12:59:59.803Z,100
2017-10-11T13:01:02.239Z,100
2017-10-11T13:02:04.665Z,100
2017-10-11T13:03:07.108Z,100
2017-10-11T13:04:09.551Z,100
2017-10-11T13:05:12.338Z,100
2017-10-11T13:06:14.767Z,100
2017-10-11T13:07:17.202Z,99
2017-10-11T13:08:19.639Z,99
2017-10-11T13:09:22.079Z,99
2017-10-11T13:10:24.509Z,99
2017-10-11T13:11:26.936Z,99
2017-10-11T13:12:29.371Z,99
2017-10-11T13:13:31.816Z,99
2017-10-11T13:14:34.601Z,99
2017-10-11T13:15:37.757Z,99
2017-10-11T13:16:40.194Z,99
2017-10-11T13:17:42.635Z,99
2017-10-11T13:18:45.079Z,99
2017-10-11T13:19:47.520Z,99
2017-10-11T13:20:49.939Z,99
2017-10-11T13:21:52.373Z,99
2017-10-11T13:22:54.811Z,99
2017-10-11T13:23:57.245Z,99
2017-10-11T13:25:00.042Z,99
2017-10-11T13:26:02.480Z,99
2017-10-11T13:27:04.916Z,99
2017-10-11T13:28:07.370Z,98
2017-10-11T13:29:09.810Z,98
2017-10-11T13:30:12.237Z,98
2017-10-11T13:31:14.676Z,98
2017-10-11T13:32:17.108Z,98
2017-10-11T13:33:19.548Z,98
2017-10-11T13:34:21.993Z,98
2017-10-11T13:35:24.430Z,98
2017-10-11T13:36:26.881Z,97
2017-10-11T13:37:29.301Z,97
2017-10-11T13:38:31.724Z,97
2017-10-11T13:39:34.168Z,97
2017-10-11T13:40:36.608Z,97
2017-10-11T13:41:39.041Z,98
2017-10-11T13:42:41.474Z,98
2017-10-11T13:43:43.911Z,97
2017-10-11T13:44:46.354Z,97
2017-10-11T13:45:48.778Z,97
2017-10-11T13:46:51.931Z,97
2017-10-11T13:47:54.736Z,96
2017-10-11T13:48:57.176Z,96
2017-10-11T13:49:59.607Z,96
2017-10-11T13:51:02.035Z,96
2017-10-11T13:52:04.461Z,96
2017-10-11T13:53:06.905Z,96
2017-10-11T13:54:09.335Z,96
2017-10-11T13:55:24.481Z,96
2017-10-11T13:56:26.861Z,96
2017-10-11T13:57:29.244Z,96
2017-10-11T13:58:31.638Z,96
2017-10-11T13:59:34.010Z,96
2017-10-11T14:00:36.403Z,96
2017-10-11T14:01:38.774Z,95
2017-10-11T14:02:41.152Z,95
2017-10-11T14:03:43.533Z,95
2017-10-11T14:04:45.919Z,96
2017-10-11T14:05:48.294Z,96
2017-10-11T14:06:50.683Z,96
2017-10-11T14:07:53.066Z,96
2017-10-11T14:08:55.463Z,96
2017-10-11T14:09:58.537Z,96
2017-10-11T14:11:00.915Z,96
2017-10-11T14:12:03.297Z,96
2017-10-11T14:13:05.686Z,96
2017-10-11T14:14:08.442Z,96
2017-10-11T14:15:10.835Z,96
2017-10-11T14:16:13.205Z,96
2017-10-11T14:17:15.591Z,96
2017-10-11T14:18:17.972Z,95
2017-10-11T14:19:20.366Z,95
2017-10-11T14:20:22.748Z,95
2017-10-11T14:21:25.126Z,95
2017-10-11T14:22:27.506Z,95
2017-10-11T14:23:30.242Z,95
2017-10-11T14:24:32.621Z,95
2017-10-11T14:25:35.009Z,95
2017-10-11T14:26:37.388Z,95
2017-10-11T14:27:39.777Z,94
2017-10-11T14:28:42.159Z,94
2017-10-11T14:29:44.552Z,94
2017-10-11T14:30:46.924Z,94
2017-10-11T14:31:49.307Z,94
2017-10-11T14:32:51.689Z,94
2017-10-11T14:33:54.075Z,94
2017-10-11T14:34:56.807Z,94
2017-10-11T14:35:59.199Z,94
2017-10-11T14:37:01.577Z,94
2017-10-11T14:38:03.968Z,94
2017-10-11T14:39:06.351Z,93
2017-10-11T14:40:08.731Z,93
2017-10-11T14:41:11.109Z,93
2017-10-11T14:42:13.501Z,93
2017-10-11T14:43:15.882Z,93